createdAt,value
2022-11-03T00:01:37.443Z,100397.81
2022-11-03T00:04:05.739Z,100397.75
2022-11-03T00:06:33.975Z,100392.75
2022-11-03T00:09:02.603Z,100397.09
2022-11-03T00:11:32.736Z,100394.44
2022-11-03T00:14:00.259Z,100394.53
2022-11-03T00:16:28.213Z,100387.78
2022-11-03T00:18:57.318Z,100388.59
2022-11-03T00:21:25.025Z,100380.91
2022-11-03T00:23:52.911Z,100380.91
2022-11-03T00:26:22.240Z,100379.88
2022-11-03T00:28:51.256Z,100383.88
2022-11-03T00:31:20.504Z,100380.22
2022-11-03T00:33:49.188Z,100375.81
2022-11-03T00:36:20.761Z,100374.72
2022-11-03T00:38:49.096Z,100369.44
2022-11-03T00:41:21.013Z,100363.34
2022-11-03T00:43:49.515Z,100360.66
2022-11-03T00:46:17.863Z,100351.16
2022-11-03T00:48:45.948Z,100341.53
2022-11-03T00:51:15.226Z,100340.59
2022-11-03T00:53:46.044Z,100343.00
2022-11-03T00:56:15.231Z,100334.38
2022-11-03T00:58:43.537Z,100333.34
2022-11-03T01:01:12.729Z,100333.28
2022-11-03T01:03:42.216Z,100328.97
2022-11-03T01:06:30.023Z,100327.09
2022-11-03T01:09:00.057Z,100321.09
2022-11-03T01:11:46.535Z,100321.81
2022-11-03T01:14:16.817Z,100325.03
2022-11-03T01:16:44.562Z,100324.09
2022-11-03T01:19:12.205Z,100321.38
2022-11-03T01:21:39.733Z,100326.50
2022-11-03T01:24:08.679Z,100326.50
2022-11-03T01:26:36.214Z,100324.75
2022-11-03T01:29:05.250Z,100323.72
2022-11-03T01:31:32.876Z,100322.84
2022-11-03T01:34:00.499Z,100319.38
2022-11-03T01:36:28.143Z,100320.16
2022-11-03T01:38:56.683Z,100315.72
2022-11-03T01:41:27.806Z,100322.56
2022-11-03T01:44:25.322Z,100308.84
2022-11-03T01:46:56.198Z,100312.13
2022-11-03T01:49:29.029Z,100313.69
2022-11-03T01:52:02.869Z,100311.91
2022-11-03T01:54:31.787Z,100303.00
2022-11-03T01:57:01.611Z,100306.38
2022-11-03T01:59:29.765Z,100298.56
2022-11-03T02:01:57.382Z,100298.63
2022-11-03T02:04:29.997Z,100299.44
2022-11-03T02:07:09.666Z,100287.63
2022-11-03T02:09:37.196Z,100292.78
2022-11-03T02:12:10.147Z,100288.50
2022-11-03T02:14:43.557Z,100279.03
2022-11-03T02:17:12.512Z,100266.94
2022-11-03T02:19:43.819Z,100275.38
2022-11-03T02:22:32.224Z,100269.34
2022-11-03T02:25:06.217Z,100271.84
2022-11-03T02:27:35.165Z,100255.41
2022-11-03T02:30:04.370Z,100251.16
2022-11-03T02:32:38.302Z,100245.19
2022-11-03T02:35:12.147Z,100240.78
2022-11-03T02:37:44.243Z,100235.56
2022-11-03T02:40:15.789Z,100222.63
2022-11-03T02:42:50.722Z,100214.66
2022-11-03T02:45:20.907Z,100216.09
2022-11-03T02:47:50.006Z,100219.31
2022-11-03T02:50:19.939Z,100220.84
2022-11-03T02:52:48.258Z,100215.66
2022-11-03T02:55:21.530Z,100217.28
2022-11-03T02:57:55.028Z,100208.63
2022-11-03T03:00:22.887Z,100203.47
2022-11-03T03:02:57.063Z,100193.19
2022-11-03T03:05:28.789Z,100190.63
2022-11-03T03:08:02.354Z,100189.66
2022-11-03T03:10:34.634Z,100184.56
2022-11-03T03:13:07.772Z,100174.34
2022-11-03T03:15:41.770Z,100178.66
2022-11-03T03:18:21.022Z,100175.97
2022-11-03T03:20:56.380Z,100174.06
2022-11-03T03:23:26.333Z,100163.78
2022-11-03T03:25:59.268Z,100165.63
2022-11-03T03:28:34.873Z,100154.66
2022-11-03T03:31:06.523Z,100147.88
2022-11-03T03:33:35.280Z,100148.69
2022-11-03T03:36:05.350Z,100135.91
2022-11-03T03:38:36.913Z,100138.47
2022-11-03T03:41:10.565Z,100138.31
2022-11-03T03:43:42.496Z,100130.66
2022-11-03T03:46:13.017Z,100122.97
2022-11-03T03:48:40.768Z,100116.13
2022-11-03T03:51:08.595Z,100116.06
2022-11-03T03:53:36.178Z,100116.13
2022-11-03T03:56:05.607Z,100117.75
2022-11-03T03:58:33.409Z,100121.13
2022-11-03T04:01:02.359Z,100125.41
2022-11-03T04:03:30.312Z,100117.59
2022-11-03T04:05:57.853Z,100114.91
2022-11-03T04:08:25.454Z,100115.69
2022-11-03T04:11:10.791Z,100099.50
2022-11-03T04:13:56.162Z,100101.34
2022-11-03T04:16:42.807Z,100089.50
2022-11-03T04:19:29.959Z,100093.81
2022-11-03T04:22:15.299Z,100093.09
2022-11-03T04:24:43.047Z,100100.88
2022-11-03T04:27:29.962Z,100100.22
2022-11-03T04:29:59.191Z,100090.88
2022-11-03T04:32:29.834Z,100083.22
2022-11-03T04:34:57.485Z,100079.66
2022-11-03T04:37:28.271Z,100086.44
2022-11-03T04:39:59.863Z,100092.22
2022-11-03T04:42:28.702Z,100081.03
2022-11-03T04:44:56.491Z,100072.44
2022-11-03T04:47:23.999Z,100078.34
2022-11-03T04:49:52.921Z,100068.88
2022-11-03T04:52:22.711Z,100069.44
2022-11-03T04:54:52.222Z,100069.34
2022-11-03T04:57:19.955Z,100064.94
2022-11-03T04:59:50.600Z,100060.59
2022-11-03T05:02:20.580Z,100046.84
2022-11-03T05:04:48.231Z,100045.97
2022-11-03T05:07:26.904Z,100042.47
2022-11-03T05:09:54.650Z,100040.44
2022-11-03T05:12:22.516Z,100042.78
2022-11-03T05:14:55.452Z,100029.94
2022-11-03T05:17:28.239Z,100023.81
2022-11-03T05:19:59.047Z,100011.94
2022-11-03T05:22:31.615Z,100007.63
2022-11-03T05:25:08.710Z,100005.88
2022-11-03T05:27:36.285Z,100005.88
2022-11-03T05:30:05.697Z,99996.66
2022-11-03T05:32:35.254Z,99999.31
2022-11-03T05:35:04.063Z,99992.31
2022-11-03T05:37:34.800Z,99995.59
2022-11-03T05:40:15.747Z,99988.69
2022-11-03T05:42:45.649Z,99995.47
2022-11-03T05:45:20.644Z,99981.84
2022-11-03T05:47:49.877Z,99984.22
2022-11-03T05:50:21.147Z,99969.84
2022-11-03T05:52:52.574Z,99969.84
2022-11-03T05:55:28.813Z,99966.63
2022-11-03T05:57:58.264Z,99960.06
2022-11-03T06:00:32.394Z,99958.47
2022-11-03T06:03:00.912Z,99962.22
2022-11-03T06:05:29.222Z,99952.97
2022-11-03T06:08:03.111Z,99960.91
2022-11-03T06:10:32.891Z,99950.81
2022-11-03T06:13:05.032Z,99951.78
2022-11-03T06:15:35.730Z,99945.69
2022-11-03T06:18:14.009Z,99954.19
2022-11-03T06:20:42.030Z,99960.09
2022-11-03T06:23:13.254Z,99959.00
2022-11-03T06:25:41.898Z,99964.84
2022-11-03T06:28:15.712Z,99960.63
2022-11-03T06:30:43.829Z,99961.31
2022-11-03T06:33:16.530Z,99947.88
2022-11-03T06:35:44.782Z,99949.63
2022-11-03T06:38:18.921Z,99946.97
2022-11-03T06:40:46.964Z,99949.66
2022-11-03T06:43:24.684Z,99940.34
2022-11-03T06:45:54.931Z,99933.34
2022-11-03T06:48:28.295Z,99936.03
2022-11-03T06:50:56.406Z,99938.84
2022-11-03T06:53:32.391Z,99931.56
2022-11-03T06:56:00.562Z,99923.94
2022-11-03T06:58:33.718Z,99930.34
2022-11-03T07:01:04.203Z,99925.47
2022-11-03T07:03:35.075Z,99913.03
2022-11-03T07:06:13.739Z,99921.06
2022-11-03T07:08:45.244Z,99914.47
2022-11-03T07:11:17.587Z,99911.22
2022-11-03T07:13:46.266Z,99907.97
2022-11-03T07:16:18.649Z,99905.34
2022-11-03T07:18:47.587Z,99907.25
2022-11-03T07:21:31.858Z,99902.38
2022-11-03T07:24:03.212Z,99900.88
2022-11-03T07:26:31.202Z,99897.75
2022-11-03T07:29:01.475Z,99901.75
2022-11-03T07:31:29.040Z,99893.22
2022-11-03T07:33:58.824Z,99891.94
2022-11-03T07:36:30.121Z,99905.50
2022-11-03T07:39:00.885Z,99892.47
2022-11-03T07:41:34.613Z,99892.06
2022-11-03T07:44:02.863Z,99889.34
2022-11-03T07:46:30.420Z,99883.69
2022-11-03T07:48:59.267Z,99874.75
2022-11-03T07:51:30.647Z,99862.78
2022-11-03T07:54:03.574Z,99856.22
2022-11-03T07:56:36.403Z,99847.22
2022-11-03T07:59:12.257Z,99847.38
2022-11-03T08:01:43.251Z,99833.09
2022-11-03T08:04:13.981Z,99829.41
2022-11-03T08:06:41.525Z,99825.50
2022-11-03T08:09:09.171Z,99816.31
2022-11-03T08:11:38.149Z,99819.03
2022-11-03T08:14:05.693Z,99810.72
2022-11-03T08:16:33.265Z,99810.03
2022-11-03T08:19:00.835Z,99813.72
2022-11-03T08:21:28.379Z,99806.28
2022-11-03T08:23:56.110Z,99806.47
2022-11-03T08:26:23.714Z,99801.34
2022-11-03T08:28:53.058Z,99801.63
2022-11-03T08:31:20.660Z,99792.47
2022-11-03T08:33:48.250Z,99793.56
2022-11-03T08:36:15.878Z,99788.66
2022-11-03T08:38:43.416Z,99795.81
2022-11-03T08:41:10.971Z,99792.59
2022-11-03T08:43:38.523Z,99800.66
2022-11-03T08:46:16.709Z,99805.34
2022-11-03T08:48:45.712Z,99799.31
2022-11-03T08:51:14.471Z,99797.19
2022-11-03T08:53:43.377Z,99789.22
2022-11-03T08:56:13.108Z,99792.28
2022-11-03T08:58:42.073Z,99786.66
2022-11-03T09:01:11.263Z,99780.97
2022-11-03T09:03:39.068Z,99782.25
2022-11-03T09:06:07.214Z,99774.09
2022-11-03T09:11:22.339Z,99771.25
2022-11-03T09:13:49.871Z,99774.00
2022-11-03T09:16:18.714Z,99769.88
2022-11-03T09:18:46.473Z,99773.44
2022-11-03T09:21:14.769Z,99756.44
2022-11-03T09:23:44.735Z,99745.47
2022-11-03T09:26:12.308Z,99740.50
2022-11-03T09:28:39.924Z,99747.34
2022-11-03T09:31:07.509Z,99743.09
2022-11-03T09:33:36.949Z,99729.44
2022-11-03T09:36:04.645Z,99722.66
2022-11-03T09:38:32.187Z,99725.44
2022-11-03T09:41:00.387Z,99720.38
2022-11-03T09:43:28.047Z,99721.38
2022-11-03T09:45:55.647Z,99723.16
2022-11-03T09:48:23.319Z,99730.91
2022-11-03T09:50:55.454Z,99721.47
2022-11-03T09:53:23.224Z,99711.13
2022-11-03T09:55:50.837Z,99700.34
2022-11-03T09:58:19.050Z,99700.44
2022-11-03T10:00:47.105Z,99694.47
2022-11-03T10:03:17.962Z,99700.41
2022-11-03T10:05:46.466Z,99703.81
2022-11-03T10:08:25.852Z,99696.88
2022-11-03T10:10:53.760Z,99689.97
2022-11-03T10:13:31.426Z,99676.09
2022-11-03T10:16:01.209Z,99693.34
2022-11-03T10:18:29.464Z,99688.38
2022-11-03T10:21:07.392Z,99675.75
2022-11-03T10:23:36.283Z,99679.50
2022-11-03T10:26:11.133Z,99670.91
2022-11-03T10:28:39.416Z,99670.28
2022-11-03T10:31:18.786Z,99661.78
2022-11-03T10:33:52.946Z,99656.72
2022-11-03T10:36:25.569Z,99660.22
2022-11-03T10:38:54.684Z,99640.53
2022-11-03T10:41:24.038Z,99638.91
2022-11-03T10:44:04.261Z,99627.75
2022-11-03T10:49:21.457Z,99618.34
2022-11-03T10:51:51.352Z,99619.22
2022-11-03T10:54:23.039Z,99608.81
2022-11-03T10:56:52.269Z,99592.38
2022-11-03T10:59:21.680Z,99590.66
2022-11-03T11:01:49.619Z,99598.38
2022-11-03T11:04:19.151Z,99581.97
2022-11-03T11:06:48.294Z,99581.94
2022-11-03T11:09:23.142Z,99569.00
2022-11-03T11:12:02.323Z,99569.00
2022-11-03T11:14:39.113Z,99560.38
2022-11-03T11:17:07.345Z,99550.91
2022-11-03T11:20:07.959Z,99562.13
2022-11-03T11:22:35.587Z,99558.72
2022-11-03T11:25:04.688Z,99552.69
2022-11-03T11:28:00.905Z,99542.34
2022-11-03T11:31:05.215Z,99543.22
2022-11-03T11:33:34.983Z,99529.38
2022-11-03T11:36:21.589Z,99527.72
2022-11-03T11:39:11.391Z,99520.75
2022-11-03T11:42:13.282Z,99512.19
2022-11-03T11:44:53.893Z,99500.97
2022-11-03T11:47:40.734Z,99500.09
2022-11-03T11:50:38.585Z,99491.44
2022-11-03T11:53:20.648Z,99494.91
2022-11-03T11:55:51.906Z,99481.03
2022-11-03T11:58:25.235Z,99486.22
2022-11-03T12:00:55.475Z,99475.88
2022-11-03T12:03:29.248Z,99479.25
2022-11-03T12:05:56.923Z,99455.13
2022-11-03T12:08:31.745Z,99466.31
2022-11-03T12:11:01.959Z,99435.25
2022-11-03T12:13:48.491Z,99437.00
2022-11-03T12:16:43.003Z,99443.84
2022-11-03T12:19:39.904Z,99436.09
2022-11-03T12:22:10.172Z,99424.91
2022-11-03T12:24:49.519Z,99422.31
2022-11-03T12:27:43.142Z,99427.53
2022-11-03T12:30:17.470Z,99419.75
2022-11-03T12:32:45.935Z,99421.47
2022-11-03T12:35:14.501Z,99403.34
2022-11-03T12:37:42.966Z,99399.91
2022-11-03T12:40:13.277Z,99394.72
2022-11-03T12:42:40.847Z,99393.00
2022-11-03T12:45:09.354Z,99379.19
2022-11-03T12:47:38.286Z,99370.53
2022-11-03T12:50:06.241Z,99361.06
2022-11-03T12:52:33.804Z,99374.00
2022-11-03T12:55:01.374Z,99364.53
2022-11-03T12:57:28.933Z,99353.31
2022-11-03T12:59:56.475Z,99352.44
2022-11-03T13:02:24.268Z,99350.75
2022-11-03T13:04:53.204Z,99343.81
2022-11-03T13:07:27.731Z,99334.34
2022-11-03T13:09:58.023Z,99313.63
2022-11-03T13:12:36.535Z,99307.59
2022-11-03T13:15:06.602Z,99292.94
2022-11-03T13:17:52.343Z,99300.69
2022-11-03T13:20:24.475Z,99285.19
2022-11-03T13:22:52.348Z,99285.16
2022-11-03T13:25:19.981Z,99268.75
2022-11-03T13:27:53.570Z,99258.41
2022-11-03T13:30:21.483Z,99252.38
2022-11-03T13:32:49.209Z,99237.72
2022-11-03T13:35:17.556Z,99229.91
2022-11-03T13:37:46.999Z,99226.44
2022-11-03T13:40:35.637Z,99220.41
2022-11-03T13:43:03.448Z,99210.91
2022-11-03T13:45:31.031Z,99206.59
2022-11-03T13:50:46.289Z,99209.16
2022-11-03T13:56:06.995Z,99208.34
2022-11-03T14:01:24.127Z,99210.09
2022-11-03T14:06:39.440Z,99188.50
2022-11-03T14:09:08.402Z,99180.75
2022-11-03T14:11:53.595Z,99173.84
2022-11-03T14:14:21.169Z,99154.03
2022-11-03T14:16:48.760Z,99144.50
2022-11-03T14:19:16.367Z,99139.31
2022-11-03T14:21:44.064Z,99139.28
2022-11-03T14:24:13.011Z,99140.16
2022-11-03T14:26:42.808Z,99120.34
2022-11-03T14:29:11.090Z,99119.50
2022-11-03T14:31:38.688Z,99113.44
2022-11-03T14:34:06.279Z,99116.94
2022-11-03T14:36:33.850Z,99123.84
2022-11-03T14:39:01.458Z,99120.41
2022-11-03T14:41:47.790Z,99110.91
2022-11-03T14:44:15.347Z,99095.38
2022-11-03T14:46:42.969Z,99103.16
2022-11-03T14:49:10.519Z,99094.53
2022-11-03T14:51:38.090Z,99104.88
2022-11-03T14:54:05.612Z,99092.81
2022-11-03T14:56:34.626Z,99097.09
2022-11-03T14:59:02.200Z,99087.59
2022-11-03T15:01:29.990Z,99077.25
2022-11-03T15:03:57.667Z,99070.34
2022-11-03T15:06:25.219Z,99060.94
2022-11-03T15:08:56.441Z,99063.53
2022-11-03T15:11:24.411Z,99055.78
2022-11-03T15:13:54.352Z,99049.78
2022-11-03T15:16:22.158Z,99036.88
2022-11-03T15:18:50.167Z,99036.03
2022-11-03T15:21:18.010Z,99029.16
2022-11-03T15:26:33.063Z,99015.41
2022-11-03T15:29:01.922Z,99016.25
2022-11-03T15:31:29.502Z,99011.06
2022-11-03T15:33:57.197Z,99014.53
2022-11-03T15:36:27.068Z,98999.03
2022-11-03T15:38:54.665Z,98996.47
2022-11-03T15:41:22.276Z,98990.38
2022-11-03T15:43:51.255Z,98981.78
2022-11-03T15:46:20.526Z,98974.94
2022-11-03T15:48:49.035Z,98982.66
2022-11-03T15:51:16.579Z,98982.69
2022-11-03T15:53:44.586Z,98973.19
2022-11-03T15:56:12.134Z,98974.06
2022-11-03T15:58:39.634Z,98973.19
2022-11-03T16:01:07.364Z,98967.19
2022-11-03T16:03:36.292Z,98951.69
2022-11-03T16:06:03.860Z,98958.59
2022-11-03T16:08:31.484Z,98958.59
2022-11-03T16:10:58.999Z,98949.09
2022-11-03T16:13:26.677Z,98945.66
2022-11-03T16:15:54.741Z,98942.22
2022-11-03T16:18:22.595Z,98944.81
2022-11-03T16:20:51.514Z,98944.81
2022-11-03T16:23:19.157Z,98948.25
2022-11-03T16:25:46.768Z,98957.72
2022-11-03T16:28:14.512Z,98966.31
2022-11-03T16:30:42.026Z,98954.25
2022-11-03T16:33:10.017Z,98965.44
2022-11-03T16:35:37.519Z,98974.03
2022-11-03T16:38:08.105Z,98982.63
2022-11-03T16:40:36.703Z,98989.47
2022-11-03T16:43:04.279Z,98992.06
2022-11-03T16:45:37.298Z,99000.66
2022-11-03T16:48:07.562Z,98998.94
2022-11-03T16:50:35.727Z,98995.53
2022-11-03T16:53:03.873Z,98989.47
2022-11-03T16:55:32.824Z,98982.59
2022-11-03T16:58:00.427Z,98982.63
2022-11-03T17:00:28.109Z,98974.88
2022-11-03T17:02:55.681Z,98974.00
2022-11-03T17:05:23.248Z,98949.06
2022-11-03T17:07:54.066Z,98949.06
2022-11-03T17:10:21.998Z,98944.75
2022-11-03T17:12:50.965Z,98943.03
2022-11-03T17:15:18.602Z,98967.97
2022-11-03T17:17:46.182Z,99000.59
2022-11-03T17:20:14.358Z,98979.94
2022-11-03T17:22:41.878Z,98967.09
2022-11-03T17:25:11.896Z,98961.06
2022-11-03T17:27:44.089Z,98951.59
2022-11-03T17:30:17.933Z,98958.47
2022-11-03T17:32:45.535Z,98946.41
2022-11-03T17:35:18.978Z,98924.94
2022-11-03T17:37:46.381Z,98915.47
2022-11-03T17:40:16.737Z,98904.28
2022-11-03T17:42:44.778Z,98892.25
2022-11-03T17:45:15.200Z,98875.91
2022-11-03T17:47:42.929Z,98877.63
2022-11-03T17:50:14.456Z,98858.72
2022-11-03T17:52:42.771Z,98858.72
2022-11-03T17:55:18.226Z,98857.00
2022-11-03T17:57:46.387Z,98862.97
2022-11-03T18:00:20.587Z,98876.72
2022-11-03T18:02:49.596Z,98890.41
2022-11-03T18:05:23.375Z,98898.13
2022-11-03T18:07:51.287Z,98900.72
2022-11-03T18:10:18.871Z,98890.38
2022-11-03T18:13:06.746Z,98886.94
2022-11-03T18:15:39.037Z,98886.97
2022-11-03T18:18:13.628Z,98881.81
2022-11-03T18:20:50.350Z,98880.09
2022-11-03T18:23:22.393Z,98871.50
2022-11-03T18:25:51.017Z,98872.34
2022-11-03T18:28:19.396Z,98871.50
2022-11-03T18:30:50.814Z,98870.66
2022-11-03T18:33:22.974Z,98880.13
2022-11-03T18:35:51.053Z,98880.09
2022-11-03T18:38:19.018Z,98879.22
2022-11-03T18:40:46.651Z,98870.66
2022-11-03T18:43:16.279Z,98865.50
2022-11-03T18:45:43.985Z,98855.19
2022-11-03T18:48:19.167Z,98850.06
2022-11-03T18:50:49.269Z,98849.19
2022-11-03T18:53:18.599Z,98855.19
2022-11-03T18:55:46.748Z,98855.19
2022-11-03T18:58:18.843Z,98859.50
2022-11-03T19:00:46.598Z,98860.38
2022-11-03T19:03:17.784Z,98870.69
2022-11-03T19:05:47.597Z,98862.91
2022-11-03T19:08:21.750Z,98871.50
2022-11-03T19:10:50.175Z,98872.38
2022-11-03T19:13:23.654Z,98865.50
2022-11-03T19:15:51.581Z,98861.22
2022-11-03T19:18:20.850Z,98853.47
2022-11-03T19:20:48.396Z,98863.78
2022-11-03T19:23:16.079Z,98842.31
2022-11-03T19:25:44.227Z,98839.72
2022-11-03T19:28:14.537Z,98836.25
2022-11-03T19:30:42.562Z,98839.72
2022-11-03T19:33:19.465Z,98828.53
2022-11-03T19:35:49.339Z,98812.22
2022-11-03T19:38:19.983Z,98813.91
2022-11-03T19:41:02.010Z,98804.47
2022-11-03T19:43:34.346Z,98801.03
2022-11-03T19:46:02.695Z,98784.72
2022-11-03T19:48:34.136Z,98784.72
2022-11-03T19:51:04.451Z,98780.41
2022-11-03T19:53:33.157Z,98765.78
2022-11-03T19:56:01.257Z,98777.84
2022-11-03T19:58:30.290Z,98769.25
2022-11-03T20:01:02.837Z,98772.69
2022-11-03T20:03:33.389Z,98776.09
2022-11-03T20:06:01.107Z,98767.53
2022-11-03T20:08:32.136Z,98764.09
2022-11-03T20:10:59.732Z,98769.25
2022-11-03T20:13:31.360Z,98777.84
2022-11-03T20:16:01.058Z,98779.53
2022-11-03T20:18:29.493Z,98777.84
2022-11-03T20:20:57.406Z,98773.56
2022-11-03T20:23:29.326Z,98763.22
2022-11-03T20:25:58.555Z,98770.13
2022-11-03T20:28:28.535Z,98757.25
2022-11-03T20:30:57.017Z,98760.66
2022-11-03T20:33:26.289Z,98748.63
2022-11-03T20:35:55.782Z,98737.47
2022-11-03T20:38:25.870Z,98743.50
2022-11-03T20:40:58.444Z,98735.75
2022-11-03T20:43:30.166Z,98735.75
2022-11-03T20:45:58.371Z,98741.75
2022-11-03T20:48:26.428Z,98745.22
2022-11-03T20:50:55.094Z,98734.91
2022-11-03T20:53:25.319Z,98734.03
2022-11-03T20:55:54.017Z,98746.94
2022-11-03T20:58:21.662Z,98760.69
2022-11-03T21:00:50.865Z,98764.13
2022-11-03T21:03:45.049Z,98767.53
2022-11-03T21:06:10.213Z,98766.69
2022-11-03T21:08:37.750Z,98760.66
2022-11-03T21:11:28.299Z,98760.69
2022-11-03T21:13:58.197Z,98780.44
2022-11-03T21:16:46.801Z,98783.00
2022-11-03T21:19:36.663Z,98799.28
2022-11-03T21:22:30.716Z,98818.19
2022-11-03T21:25:02.434Z,98827.63
2022-11-03T21:27:30.102Z,98818.22
2022-11-03T21:30:00.062Z,98813.94
2022-11-03T21:32:29.438Z,98816.53
2022-11-03T21:34:57.058Z,98817.47
2022-11-03T21:37:24.635Z,98812.31
2022-11-03T21:39:52.292Z,98847.56
2022-11-03T21:42:37.397Z,98857.03
2022-11-03T21:45:05.891Z,98859.59
2022-11-03T21:47:34.766Z,98851.84
2022-11-03T21:50:01.446Z,98862.19
2022-11-03T21:52:32.513Z,98872.47
2022-11-03T21:55:00.866Z,98892.25
2022-11-03T21:57:29.265Z,98898.25
2022-11-03T21:59:58.714Z,98910.22
2022-11-03T22:02:26.559Z,98915.38
2022-11-03T22:04:56.482Z,98925.75
2022-11-03T22:07:24.429Z,98942.91
2022-11-03T22:09:52.069Z,98922.25
2022-11-03T22:12:19.601Z,98920.53
2022-11-03T22:15:04.980Z,98920.53
2022-11-03T22:17:32.506Z,98929.13
2022-11-03T22:20:19.050Z,98937.69
2022-11-03T22:23:04.289Z,98936.78
2022-11-03T22:25:49.526Z,98969.44
2022-11-03T22:28:17.348Z,98980.59
2022-11-03T22:31:02.909Z,98990.09
2022-11-03T22:33:30.426Z,98996.09
2022-11-03T22:36:21.465Z,98998.69
2022-11-03T22:39:07.183Z,98998.72
2022-11-03T22:41:52.458Z,99009.84
2022-11-03T22:44:37.977Z,99012.38
2022-11-03T22:47:08.174Z,99008.13
2022-11-03T22:49:36.201Z,99008.09
2022-11-03T22:52:05.413Z,99026.13
2022-11-03T22:54:31.976Z,99042.47
2022-11-03T22:56:59.542Z,99018.47
2022-11-03T22:59:27.037Z,99008.16
2022-11-03T23:01:54.672Z,98984.09
2022-11-03T23:04:22.296Z,98987.53
2022-11-03T23:06:49.807Z,99006.41
2022-11-03T23:09:18.729Z,99021.91
2022-11-03T23:11:46.247Z,99015.00
2022-11-03T23:14:13.770Z,99026.19
2022-11-03T23:16:42.757Z,99029.63
2022-11-03T23:19:30.163Z,99040.78
2022-11-03T23:21:57.789Z,99041.66
2022-11-03T23:24:45.544Z,99034.78
2022-11-03T23:27:14.056Z,99008.19
2022-11-03T23:29:41.731Z,99017.59
2022-11-03T23:32:09.562Z,99028.81
2022-11-03T23:34:37.150Z,99029.66
2022-11-03T23:37:04.915Z,99027.09
2022-11-03T23:39:33.819Z,99025.41
2022-11-03T23:42:01.330Z,99011.63
2022-11-03T23:44:49.835Z,99006.56
2022-11-03T23:47:34.966Z,99013.47
2022-11-03T23:50:02.510Z,99011.75
2022-11-03T23:52:30.030Z,99023.78
2022-11-03T23:54:58.890Z,99030.69
2022-11-03T23:57:44.181Z,99025.53
